Time;durP1;ratioP1;P1;durP2;ratioP2;P2;SDS_P1;SDS_P2;PMS_P1;PMS_P2;Temp;Humidity;BMP_temperature;BMP_pressure;BME280_temperature;BME280_humidity;BME280_pressure;Samples;Min_cycle;Max_cycle;Signal;HPM_P1;HPM_P2
2023/04/17 00:00:32;;;;;;;9.20;8.50;;;;;;;11.41;100.00;-12358.31;5095039;28;20188;-61
2023/04/17 00:03:00;;;;;;;8.43;7.87;;;;;;;11.80;100.00;-10130.66;5094882;28;20200;-62
2023/04/17 00:05:30;;;;;;;8.67;8.17;;;;;;;11.94;100.00;-8216.19;5095207;28;20638;-62
2023/04/17 00:07:58;;;;;;;8.87;8.23;;;;;;;11.98;100.00;-8535.94;5094870;28;20262;-62
2023/04/17 00:10:26;;;;;;;11.13;10.33;;;;;;;12.09;100.00;-10772.41;5094910;28;20210;-62
2023/04/17 00:12:53;;;;;;;10.90;9.87;;;;;;;12.05;100.00;-12686.78;5094959;28;20732;-63
2023/04/17 00:15:20;;;;;;;15.93;12.10;;;;;;;11.99;100.00;-12685.88;5094945;28;20631;-61
2023/04/17 00:17:47;;;;;;;12.20;11.23;;;;;;;11.98;100.00;-11728.56;5094611;28;20239;-62
2023/04/17 00:20:14;;;;;;;14.50;12.90;;;;;;;12.04;100.00;-11091.06;5095041;28;20692;-62
2023/04/17 00:22:42;;;;;;;13.50;12.13;;;;;;;12.12;100.00;-11411.28;5095089;28;20339;-64
2023/04/17 00:25:11;;;;;;;13.73;12.43;;;;;;;12.07;100.00;-11410.63;5094515;28;20184;-62
2023/04/17 00:27:38;;;;;;;15.13;12.00;;;;;;;12.01;100.00;-12048.06;5094798;28;20573;-62
2023/04/17 00:30:07;;;;;;;13.10;12.00;;;;;;;11.93;100.00;-12046.84;5094962;28;20198;-62
2023/04/17 00:32:34;;;;;;;12.70;11.80;;;;;;;11.89;100.00;-11727.31;5094458;28;20269;-62
2023/04/17 00:35:01;;;;;;;14.07;12.80;;;;;;;11.96;100.00;-12047.34;5094369;28;20237;-62
2023/04/17 00:37:28;;;;;;;12.63;11.53;;;;;;;12.10;100.00;-12049.28;5094555;28;20295;-62
2023/04/17 00:39:56;;;;;;;15.93;12.63;;;;;;;12.22;100.00;-12051.06;5094617;28;20231;-62
2023/04/17 00:42:23;;;;;;;13.50;12.23;;;;;;;12.20;100.00;-11412.28;5094697;28;20573;-63
2023/04/17 00:44:50;;;;;;;15.57;12.73;;;;;;;12.26;100.00;-10774.53;5094127;28;20184;-62
2023/04/17 00:47:21;;;;;;;14.80;13.40;;;;;;;12.09;100.00;-10453.13;5094236;28;20180;-62
2023/04/17 00:49:48;;;;;;;15.00;13.50;;;;;;;12.11;100.00;-10772.63;5094477;28;20180;-61
2023/04/17 00:52:21;;;;;;;16.27;14.67;;;;;;;12.19;100.00;-10773.63;5094358;28;20291;-61
2023/04/17 00:54:48;;;;;;;18.70;14.13;;;;;;;12.09;100.00;-10772.47;5093585;28;20184;-62
2023/04/17 00:57:17;;;;;;;16.23;14.53;;;;;;;11.97;100.00;-11090.16;5094237;28;20294;-61
2023/04/17 00:59:45;;;;;;;15.77;14.07;;;;;;;12.10;100.00;-11730.22;5094159;28;20615;-62
2023/04/17 01:02:12;;;;;;;17.83;15.10;;;;;;;12.15;100.00;-11730.81;5093865;28;20613;-61
2023/04/17 01:04:39;;;;;;;15.50;13.67;;;;;;;12.23;100.00;-11731.94;5093827;28;20275;-62
2023/04/17 01:07:06;;;;;;;14.27;12.97;;;;;;;12.28;100.00;-11413.34;5093745;28;20271;-62
2023/04/17 01:09:34;;;;;;;18.43;13.43;;;;;;;12.31;100.00;-11094.50;5093666;28;20216;-62
2023/04/17 01:15:05;;;;;;;20.03;14.57;;;;;;;12.16;100.00;-10454.00;5150842;27;21074;-61
2023/04/17 01:17:32;;;;;;;21.03;14.90;;;;;;;12.11;100.00;-10772.69;5150489;27;20204;-62
2023/04/17 01:20:00;;;;;;;23.63;16.07;;;;;;;12.03;100.00;-11410.09;5150808;27;20694;-61
2023/04/17 01:22:27;;;;;;;17.73;15.33;;;;;;;11.92;100.00;-10770.38;5150460;27;20193;-62
2023/04/17 01:24:55;;;;;;;24.17;16.83;;;;;;;11.92;100.00;-10770.31;5150755;27;20182;-62
2023/04/17 01:27:22;;;;;;;18.47;16.57;;;;;;;11.93;100.00;-11089.59;5150395;27;20272;-62
2023/04/17 01:29:49;;;;;;;19.90;15.77;;;;;;;11.79;100.00;-10768.78;5150263;27;20214;-61
2023/04/17 01:32:17;;;;;;;16.63;14.90;;;;;;;11.81;100.00;-11088.13;5150547;27;20552;-62
2023/04/17 01:34:44;;;;;;;17.10;15.43;;;;;;;11.80;100.00;-11088.00;5150038;27;20205;-62
2023/04/17 01:37:11;;;;;;;21.10;17.03;;;;;;;11.87;100.00;-11407.97;5150557;27;20548;-62
2023/04/17 01:39:38;;;;;;;20.70;16.50;;;;;;;11.86;100.00;-11088.75;5150048;27;20217;-62
2023/04/17 01:42:07;;;;;;;26.27;17.07;;;;;;;11.95;100.00;-11089.84;5131797;27;20273;-62
2023/04/17 01:44:36;;;;;;;18.17;16.07;;;;;;;12.03;100.00;-11410.09;5150323;27;20190;-62
2023/04/17 01:47:03;;;;;;;21.30;16.93;;;;;;;12.09;100.00;-11410.84;5150041;27;20186;-62
2023/04/17 01:49:30;;;;;;;21.67;16.60;;;;;;;12.05;100.00;-11091.19;5149912;27;20272;-62
2023/04/17 01:51:57;;;;;;;22.57;16.03;;;;;;;12.15;100.00;-10773.13;5150173;27;20289;-62
2023/04/17 01:54:24;;;;;;;21.53;16.30;;;;;;;12.21;100.00;-10454.53;5150099;27;20289;-62
2023/04/17 01:56:52;;;;;;;21.00;16.83;;;;;;;12.03;100.00;-10133.22;5149801;27;20273;-61
2023/04/17 01:59:20;;;;;;;22.83;16.30;;;;;;;12.25;100.00;-9816.22;5149746;27;20285;-61
2023/04/17 02:01:47;;;;;;;18.70;16.63;;;;;;;12.26;100.00;-9816.38;5149904;27;20186;-61
2023/04/17 02:04:14;;;;;;;19.30;16.60;;;;;;;12.22;100.00;-10135.34;5149747;27;20178;-63
2023/04/17 02:06:41;;;;;;;18.07;16.27;;;;;;;12.23;100.00;-10135.47;5149979;27;20189;-62
2023/04/17 02:09:08;;;;;;;22.00;15.63;;;;;;;12.25;100.00;-10135.69;5149628;27;20278;-63
2023/04/17 02:11:35;;;;;;;20.07;17.00;;;;;;;12.08;100.00;-10453.06;5149994;27;20619;-61
2023/04/17 02:14:02;;;;;;;17.63;15.63;;;;;;;12.28;100.00;-10774.78;5149355;27;20321;-62
2023/04/17 02:16:31;;;;;;;21.37;17.07;;;;;;;12.29;100.00;-10774.84;5149704;27;20697;-62
2023/04/17 02:18:58;;;;;;;19.97;17.37;;;;;;;12.30;100.00;-10455.66;5149305;27;20186;-67
2023/04/17 02:21:26;;;;;;;22.83;16.07;;;;;;;12.23;100.00;-10135.41;5149323;27;20291;-62
2023/04/17 02:23:53;;;;;;;25.57;16.53;;;;;;;12.28;100.00;-10774.78;5149507;27;20189;-62
2023/04/17 02:26:20;;;;;;;19.27;15.60;;;;;;;12.39;100.00;-11414.75;5134952;27;20193;-62
2023/04/17 02:28:47;;;;;;;22.97;15.80;;;;;;;12.44;100.00;-11415.41;5135729;27;20686;-60
2023/04/17 02:31:15;;;;;;;18.23;16.30;;;;;;;12.40;100.00;-11095.50;5135308;27;20178;-62
2023/04/17 02:33:43;;;;;;;21.90;19.57;;;;;;;12.42;100.00;-11734.53;5135525;27;20207;-62
2023/04/17 02:36:10;;;;;;;41.23;27.13;;;;;;;12.40;100.00;-11734.19;5135245;27;20270;-62
2023/04/17 02:38:38;;;;;;;48.63;32.20;;;;;;;12.39;100.00;-12053.34;5135162;27;20266;-62
2023/04/17 02:41:05;;;;;;;56.37;34.27;;;;;;;12.43;100.00;-12373.22;5135097;27;20183;-62
2023/04/17 02:43:32;;;;;;;55.53;37.50;;;;;;;12.45;100.00;-12373.50;5135110;27;20179;-61
2023/04/17 02:46:00;;;;;;;71.83;40.83;;;;;;;12.41;100.00;-12692.22;5135335;27;20189;-61
2023/04/17 02:48:27;;;;;;;76.83;40.93;;;;;;;12.27;100.00;-12690.16;5135221;27;20663;-62
2023/04/17 02:50:55;;;;;;;75.67;43.73;;;;;;;12.45;100.00;-13012.06;5135227;27;20225;-62
2023/04/17 02:53:22;;;;;;;67.60;42.87;;;;;;;12.44;100.00;-13011.91;5135165;27;20248;-62
2023/04/17 02:55:49;;;;;;;74.57;42.30;;;;;;;12.45;100.00;-13012.00;5134851;27;20187;-62
2023/04/17 02:58:16;;;;;;;67.67;41.13;;;;;;;12.32;100.00;-13329.22;5134851;27;20225;-61
2023/04/17 03:00:43;;;;;;;69.63;40.33;;;;;;;12.42;100.00;-13330.69;5134714;27;20183;-61
2023/04/17 03:03:10;;;;;;;67.03;40.27;;;;;;;12.47;100.00;-13650.69;5134692;27;20273;-61
2023/04/17 03:05:37;;;;;;;66.23;41.67;;;;;;;12.56;100.00;-13652.22;5134636;27;20262;-62
2023/04/17 03:08:06;;;;;;;61.37;37.83;;;;;;;12.63;100.00;-13653.38;5134734;27;20282;-62
2023/04/17 03:10:33;;;;;;;66.50;39.17;;;;;;;12.62;100.00;-13972.44;5134866;27;20681;-64
2023/04/17 03:13:02;;;;;;;65.87;38.77;;;;;;;12.70;100.00;-13973.81;5134548;27;20692;-61
2023/04/17 03:15:29;;;;;;;63.23;40.13;;;;;;;12.67;100.00;-14292.63;5134447;27;20274;-60
2023/04/17 03:17:56;;;;;;;64.20;39.03;;;;;;;12.77;100.00;-14613.63;5134378;27;20222;-59
2023/04/17 03:20:23;;;;;;;63.23;40.83;;;;;;;12.81;100.00;-14933.59;5134406;27;20218;-63
2023/04/17 03:22:50;;;;;;;66.47;39.97;;;;;;;12.91;100.00;-14935.31;5134247;27;20179;-61
2023/04/17 03:25:19;;;;;;;65.33;40.57;;;;;;;12.96;100.00;-15574.88;5134592;27;20685;-60
2023/04/17 03:27:46;;;;;;;71.13;41.23;;;;;;;12.92;100.00;-15893.25;5134213;27;20187;-60
2023/04/17 03:30:13;;;;;;;66.30;41.90;;;;;;;12.81;100.00;-16210.09;5134275;27;20251;-62
2023/04/17 03:32:40;;;;;;;59.50;36.37;;;;;;;12.80;100.00;-16209.88;5134434;27;20179;-60
2023/04/17 03:35:08;;;;;;;40.23;30.13;;;;;;;12.78;100.00;-16209.47;5133969;27;20214;-60
2023/04/17 03:37:37;;;;;;;39.90;31.67;;;;;;;12.74;100.00;-16208.72;5133052;27;20210;-60
2023/04/17 03:40:06;;;;;;;43.97;31.53;;;;;;;12.85;100.00;-16530.03;5133975;27;20182;-60
2023/04/17 03:42:34;;;;;;;51.07;35.43;;;;;;;12.62;100.00;-16206.22;5134270;27;20209;-61
2023/04/17 03:45:04;;;;;;;49.70;32.93;;;;;;;12.69;100.00;-15888.53;5134171;27;20629;-61
2023/04/17 03:47:31;;;;;;;40.43;30.33;;;;;;;12.53;100.00;-15566.38;5133837;27;20190;-61
2023/04/17 03:49:58;;;;;;;43.53;30.20;;;;;;;12.48;100.00;-14927.34;5133792;27;20273;-61
2023/04/17 03:52:25;;;;;;;47.87;31.53;;;;;;;12.62;100.00;-14610.78;5133890;27;20187;-61
2023/04/17 03:54:52;;;;;;;46.43;29.40;;;;;;;12.66;100.00;-14292.34;5133994;27;20670;-60
2023/04/17 03:57:19;;;;;;;39.70;26.67;;;;;;;12.71;100.00;-13974.09;5134012;27;20273;-60
2023/04/17 03:59:48;;;;;;;39.37;26.37;;;;;;;12.73;100.00;-13335.84;5133641;27;20189;-61
2023/04/17 04:02:15;;;;;;;42.90;25.63;;;;;;;12.71;100.00;-13654.81;5133796;27;20655;-60
2023/04/17 04:04:42;;;;;;;42.33;25.60;;;;;;;12.82;100.00;-13975.91;5133506;27;20210;-62
2023/04/17 04:07:09;;;;;;;34.77;24.87;;;;;;;12.91;100.00;-14296.81;5133435;27;20218;-61
2023/04/17 04:09:36;;;;;;;36.87;25.57;;;;;;;12.97;100.00;-14617.13;5133801;27;20262;-61
2023/04/17 04:12:03;;;;;;;36.43;24.93;;;;;;;12.97;100.00;-14297.91;5133366;27;20218;-60
2023/04/17 04:14:30;;;;;;;37.73;25.63;;;;;;;12.98;100.00;-14936.63;5133124;27;20236;-62
2023/04/17 04:16:58;;;;;;;37.17;25.67;;;;;;;12.81;100.00;-15571.88;5133631;27;20270;-61
2023/04/17 04:19:26;;;;;;;35.87;25.20;;;;;;;13.03;100.00;-15895.41;5133241;27;20266;-60
2023/04/17 04:21:53;;;;;;;34.30;25.53;;;;;;;12.96;100.00;-16213.25;5133206;27;20178;-60
2023/04/17 04:24:20;;;;;;;35.50;25.07;;;;;;;12.88;100.00;-16211.56;5133466;27;20561;-61
2023/04/17 04:26:48;;;;;;;28.50;22.27;;;;;;;12.90;100.00;-16212.00;5133124;27;20186;-60
2023/04/17 04:29:16;;;;;;;33.87;22.37;;;;;;;13.10;100.00;-16216.19;5132562;27;20736;-61
2023/04/17 04:31:45;;;;;;;26.03;19.43;;;;;;;13.13;100.00;-16536.06;5133279;27;20553;-61
2023/04/17 04:34:15;;;;;;;26.27;21.30;;;;;;;13.21;100.00;-16856.91;5132854;27;20268;-60
2023/04/17 04:36:48;;;;;;;27.47;21.43;;;;;;;13.20;100.00;-17495.19;5132849;27;20191;-61
2023/04/17 04:39:19;;;;;;;34.40;21.43;;;;;;;13.22;100.00;-18133.91;5133189;27;20186;-60
2023/04/17 04:41:46;;;;;;;25.10;18.80;;;;;;;13.27;100.00;-18137.00;5133097;27;20190;-61
2023/04/17 04:44:13;;;;;;;19.13;17.13;;;;;;;13.35;100.00;-18138.81;5132829;27;20262;-61
2023/04/17 04:46:40;;;;;;;21.17;16.00;;;;;;;13.26;100.00;-18136.75;5132718;27;20629;-63
2023/04/17 04:49:07;;;;;;;15.83;14.10;;;;;;;13.33;100.00;-18138.31;5132526;27;20269;-61
2023/04/17 04:51:36;;;;;;;19.47;14.43;;;;;;;13.34;100.00;-18138.56;5132716;27;20255;-60
2023/04/17 04:54:03;;;;;;;15.30;13.80;;;;;;;13.20;100.00;-18135.31;5132556;27;20202;-60
2023/04/17 04:56:30;;;;;;;14.47;13.03;;;;;;;13.30;100.00;-18137.59;5132959;27;20682;-60
2023/04/17 04:58:57;;;;;;;15.27;13.47;;;;;;;13.31;100.00;-18137.84;5132580;27;20187;-60
2023/04/17 05:01:24;;;;;;;15.93;13.60;;;;;;;13.44;100.00;-18140.84;5132548;27;20189;-60
2023/04/17 05:03:51;;;;;;;20.00;13.10;;;;;;;13.37;100.00;-18137.28;5132787;27;20189;-61
2023/04/17 05:06:18;;;;;;;14.70;12.73;;;;;;;13.55;100.00;-17503.00;5132582;27;20278;-60
2023/04/17 05:08:47;;;;;;;13.80;12.47;;;;;;;13.30;100.00;-13984.16;5132757;27;20706;-60
2023/04/17 05:11:14;;;;;;;15.53;12.70;;;;;;;13.26;100.00;-14941.94;5132800;28;20222;-60
2023/04/17 05:13:41;;;;;;;17.23;12.90;;;;;;;13.22;100.00;-15899.41;5132202;28;20230;-61
2023/04/17 05:16:09;;;;;;;19.53;13.00;;;;;;;13.06;100.00;-15257.56;5132735;28;20690;-61
2023/04/17 05:18:36;;;;;;;14.73;13.07;;;;;;;12.93;100.00;-17169.91;5132685;28;20286;-60
2023/04/17 05:21:03;;;;;;;16.40;11.57;;;;;;;12.95;100.00;-18127.28;5132300;28;20218;-61
2023/04/17 05:23:30;;;;;;;21.43;13.20;;;;;;;13.08;100.00;-18132.41;5132262;28;20222;-61
2023/04/17 05:25:58;;;;;;;13.87;11.73;;;;;;;13.11;100.00;-17812.09;5132272;28;20694;-61
2023/04/17 05:28:26;;;;;;;15.77;12.13;;;;;;;13.40;100.00;-17499.56;5132238;28;20224;-61
2023/04/17 05:30:53;;;;;;;12.50;11.33;;;;;;;13.57;100.00;-15906.34;5132172;28;20186;-61
2023/04/17 05:33:23;;;;;;;13.90;11.10;;;;;;;13.62;100.00;-14629.00;5132187;28;20182;-61
2023/04/17 05:35:50;;;;;;;12.33;10.67;;;;;;;13.78;100.00;-12393.00;5132350;28;20207;-61
2023/04/17 05:38:17;;;;;;;13.17;11.03;;;;;;;13.72;100.00;-10792.09;5132164;28;20193;-61
2023/04/17 05:40:44;;;;;;;11.97;10.80;;;;;;;13.37;100.00;-12387.03;5132118;28;20186;-60
2023/04/17 05:43:13;;;;;;;13.70;11.50;;;;;;;13.14;100.00;-16855.47;5132108;28;20274;-61
2023/04/17 05:45:41;;;;;;;12.93;11.60;;;;;;;13.10;100.00;-18131.03;5132046;28;20214;-61
2023/04/17 05:48:08;;;;;;;12.43;11.30;;;;;;;12.97;100.00;-18129.78;5132088;28;20187;-60
2023/04/17 05:50:37;;;;;;;12.13;11.03;;;;;;;12.93;100.00;-18128.81;5132365;28;20179;-61
2023/04/17 05:53:04;;;;;;;12.63;11.50;;;;;;;12.86;100.00;-18125.13;5132055;28;20190;-61
2023/04/17 05:55:31;;;;;;;11.20;10.20;;;;;;;12.73;100.00;-18122.13;5131960;28;20206;-61
2023/04/17 05:57:58;;;;;;;11.37;10.07;;;;;;;12.45;100.00;-17796.75;5132007;28;20279;-62
2023/04/17 06:00:27;;;;;;;11.73;10.60;;;;;;;12.87;100.00;-17487.56;5134069;27;20186;-61
2023/04/17 06:02:55;;;;;;;14.17;10.30;;;;;;;12.81;100.00;-16210.19;5136097;27;20209;-61
2023/04/17 06:05:22;;;;;;;10.37;9.47;;;;;;;12.84;100.00;-13018.16;5135877;27;20183;-60
2023/04/17 06:07:49;;;;;;;12.20;10.97;;;;;;;12.98;100.00;-10783.22;5135998;27;20248;-60
2023/04/17 06:10:16;;;;;;;10.87;9.23;;;;;;;12.80;100.00;-9822.03;5136024;27;20545;-61
2023/04/17 06:12:44;;;;;;;13.73;10.50;;;;;;;12.67;100.00;-9820.69;5135407;27;20198;-61
2023/04/17 06:15:12;;;;;;;14.47;10.77;;;;;;;12.92;100.00;-9183.66;5135370;27;20206;-61
2023/04/17 06:17:40;;;;;;;12.43;10.00;;;;;;;12.89;100.00;-9503.22;5135368;27;20312;-61
2023/04/17 06:20:10;;;;;;;20.53;10.47;;;;;;;13.00;100.00;-9824.16;5135359;27;20185;-61
2023/04/17 06:22:37;;;;;;;10.47;9.40;;;;;;;13.01;100.00;-6944.66;5135663;27;20191;-60
2023/04/17 06:25:05;;;;;;;10.00;9.13;;;;;;;13.10;100.00;-2460.09;5135293;27;20677;-61
2023/04/17 06:27:32;;;;;;;10.93;8.63;;;;;;;13.12;100.00;747.44;5135285;27;20275;-60
2023/04/17 06:29:59;;;;;;;14.60;9.10;;;;;;;13.08;100.00;4278.84;5135576;27;20633;-60
2023/04/17 06:32:26;;;;;;;14.33;10.20;;;;;;;13.18;100.00;4601.38;5135585;27;20183;-61
2023/04/17 06:34:55;;;;;;;10.77;9.70;;;;;;;13.20;100.00;2674.25;5135199;27;20307;-61
2023/04/17 06:37:22;;;;;;;10.83;9.77;;;;;;;13.28;100.00;106.56;5135499;27;20708;-61
2023/04/17 06:39:49;;;;;;;18.40;9.97;;;;;;;12.91;100.00;-4382.69;5135208;27;20196;-61
2023/04/17 06:42:16;;;;;;;17.90;10.93;;;;;;;12.62;100.00;-9820.13;5135344;27;20214;-62
2023/04/17 06:44:43;;;;;;;12.27;10.60;;;;;;;12.47;100.00;-15884.03;5135430;27;20208;-61
2023/04/17 06:47:10;;;;;;;13.87;11.63;;;;;;;12.39;100.00;-18115.91;5135579;27;20222;-60
2023/04/17 06:49:37;;;;;;;14.07;10.87;;;;;;;12.32;100.00;-18114.34;5135850;27;20179;-61
2023/04/17 06:52:06;;;;;;;18.73;11.73;;;;;;;12.39;100.00;-17795.34;5136102;27;20279;-61
2023/04/17 06:54:33;;;;;;;16.03;11.27;;;;;;;12.32;100.00;-16200.03;5135981;27;20289;-61
2023/04/17 06:57:00;;;;;;;14.27;10.93;;;;;;;12.23;100.00;-14922.72;5135222;27;20273;-61
2023/04/17 06:59:27;;;;;;;12.37;11.27;;;;;;;12.27;100.00;-13647.41;5134950;27;20220;-60
2023/04/17 07:01:54;;;;;;;13.80;10.97;;;;;;;12.17;100.00;-12050.28;5134885;27;20182;-61
2023/04/17 07:04:21;;;;;;;12.60;11.13;;;;;;;12.15;100.00;-12369.22;5116631;27;20218;-61
2023/04/17 07:06:48;;;;;;;10.77;9.70;;;;;;;12.05;100.00;-11091.13;5134793;27;20247;-61
2023/04/17 07:09:17;;;;;;;13.70;9.60;;;;;;;12.01;100.00;-9813.72;5134865;27;20217;-61
2023/04/17 07:11:44;;;;;;;12.50;9.40;;;;;;;11.93;100.00;-9812.84;5134445;27;20611;-61
2023/04/17 07:14:11;;;;;;;16.77;9.73;;;;;;;11.89;100.00;-10450.91;5134252;27;20755;-61
2023/04/17 07:16:38;;;;;;;11.60;9.93;;;;;;;11.94;100.00;-11089.78;5134337;27;20242;-60
2023/04/17 07:19:05;;;;;;;13.50;10.33;;;;;;;12.01;100.00;-11090.66;5134417;27;20187;-60
2023/04/17 07:21:32;;;;;;;12.17;10.77;;;;;;;12.07;100.00;-10452.97;5134281;27;20214;-60
2023/04/17 07:23:59;;;;;;;9.63;8.93;;;;;;;12.04;100.00;-12367.56;5134273;27;20183;-62
2023/04/17 07:26:27;;;;;;;11.20;10.00;;;;;;;11.83;100.00;-13640.06;5134182;27;20219;-60
2023/04/17 07:28:54;;;;;;;12.67;8.80;;;;;;;11.98;100.00;-13961.47;5134107;27;20241;-62
2023/04/17 07:31:21;;;;;;;12.27;9.57;;;;;;;12.00;100.00;-14918.34;5134142;27;20285;-61
2023/04/17 07:33:48;;;;;;;13.13;8.10;;;;;;;12.01;100.00;-15237.25;5134247;27;20636;-60
2023/04/17 07:36:16;;;;;;;13.17;9.73;;;;;;;11.93;100.00;-15554.50;5116053;27;20304;-60
2023/04/17 07:38:43;;;;;;;12.73;9.73;;;;;;;11.95;100.00;-14598.53;5133804;27;20218;-61
2023/04/17 07:41:10;;;;;;;13.17;9.37;;;;;;;11.95;100.00;-13323.16;5134323;27;20187;-61
2023/04/17 07:43:38;;;;;;;15.10;9.47;;;;;;;11.60;100.00;-12361.13;5133941;27;20183;-61
2023/04/17 07:46:05;;;;;;;14.07;9.63;;;;;;;11.85;100.00;-11726.75;5133851;27;20214;-60
2023/04/17 07:48:32;;;;;;;10.80;9.70;;;;;;;11.82;100.00;-11088.31;5134087;27;20218;-61
2023/04/17 07:51:00;;;;;;;11.03;8.87;;;;;;;11.72;100.00;-9491.44;5134005;27;20641;-61
2023/04/17 07:53:28;;;;;;;15.20;10.30;;;;;;;11.81;100.00;-9811.63;5133643;27;20206;-61
2023/04/17 07:55:55;;;;;;;11.93;9.00;;;;;;;11.66;100.00;-9810.03;5133657;27;20752;-61
2023/04/17 07:58:22;;;;;;;21.60;10.43;;;;;;;11.76;100.00;-9491.84;5115660;27;20310;-61
2023/04/17 08:00:52;;;;;;;18.53;10.03;;;;;;;11.74;100.00;-8533.94;5133880;27;20277;-62
2023/04/17 08:03:20;;;;;;;15.70;10.07;;;;;;;11.66;100.00;-9171.72;5133437;27;20569;-63
2023/04/17 08:05:48;;;;;;;14.13;9.70;;;;;;;11.80;100.00;-9492.31;5133773;27;20296;-63
2023/04/17 08:08:15;;;;;;;8.33;7.57;;;;;;;11.61;100.00;-8852.00;5115278;27;20277;-62
2023/04/17 08:10:42;;;;;;;14.53;8.83;;;;;;;11.58;100.00;-7894.06;5133335;27;20235;-62
2023/04/17 08:13:09;;;;;;;9.30;8.37;;;;;;;11.58;100.00;-8851.75;5133221;27;20222;-62
2023/04/17 08:15:40;;;;;;;9.83;8.40;;;;;;;11.56;100.00;-8851.56;5133419;27;20202;-62
2023/04/17 08:18:10;;;;;;;18.03;9.07;;;;;;;11.63;100.00;-8852.19;5115004;27;20194;-61
2023/04/17 08:20:37;;;;;;;10.67;8.80;;;;;;;11.19;100.00;-7252.97;5133554;27;20228;-62
2023/04/17 08:23:04;;;;;;;19.47;9.10;;;;;;;11.54;100.00;-8213.03;5132652;27;20597;-62
2023/04/17 08:25:31;;;;;;;17.67;9.67;;;;;;;11.54;100.00;-8532.19;5133305;27;20175;-63
2023/04/17 08:27:58;;;;;;;13.40;9.27;;;;;;;11.57;100.00;-9170.84;5133189;27;20270;-63
2023/04/17 08:30:25;;;;;;;11.07;9.37;;;;;;;11.67;100.00;-8533.31;5133235;27;20183;-62
2023/04/17 08:32:54;;;;;;;15.57;10.53;;;;;;;11.78;100.00;-9811.25;5132928;27;20214;-62
2023/04/17 08:35:22;;;;;;;10.53;9.33;;;;;;;11.77;100.00;-9492.00;5133032;27;20198;-62
2023/04/17 08:37:49;;;;;;;18.13;9.30;;;;;;;11.80;100.00;-8534.50;5132869;27;20269;-63
2023/04/17 08:40:17;;;;;;;12.03;8.27;;;;;;;11.86;100.00;-9173.59;5133278;27;20190;-63
2023/04/17 08:42:46;;;;;;;9.73;8.37;;;;;;;11.76;100.00;-7895.44;5133108;27;20547;-62
2023/04/17 08:45:14;;;;;;;9.60;7.77;;;;;;;11.72;100.00;-7575.81;5133007;27;20190;-63
2023/04/17 08:47:42;;;;;;;8.70;7.67;;;;;;;11.55;100.00;-6935.94;5133011;27;20187;-63
2023/04/17 08:50:12;;;;;;;9.23;8.43;;;;;;;11.53;100.00;-7255.16;5133105;27;20216;-63
2023/04/17 08:52:42;;;;;;;9.50;8.63;;;;;;;11.58;100.00;-7574.78;5133226;27;20654;-62
2023/04/17 08:55:10;;;;;;;8.97;8.10;;;;;;;11.48;100.00;-7893.31;5132942;27;20186;-61
2023/04/17 08:57:55;;;;;;;8.90;8.27;;;;;;;11.51;100.00;-8851.09;5133000;27;20187;-60
2023/04/17 09:00:27;;;;;;;8.87;8.00;;;;;;;11.16;100.00;-7571.88;5132905;27;20564;-61
2023/04/17 09:02:55;;;;;;;9.87;8.27;;;;;;;11.28;100.00;-7891.88;5133039;27;20256;-60
2023/04/17 09:05:24;;;;;;;10.10;9.27;;;;;;;11.32;100.00;-8849.41;5132532;27;20251;-61
2023/04/17 09:08:07;;;;;;;9.90;8.87;;;;;;;11.38;100.00;-9807.09;5114128;28;20194;-61
2023/04/17 09:10:38;;;;;;;9.40;8.60;;;;;;;11.50;100.00;-9489.25;5132341;27;20218;-61
2023/04/17 09:13:05;;;;;;;8.97;8.07;;;;;;;11.54;100.00;-9489.63;5132354;28;20308;-61
2023/04/17 09:15:32;;;;;;;9.13;8.33;;;;;;;11.58;100.00;-9809.16;5132665;28;20626;-61
2023/04/17 09:17:59;;;;;;;12.50;7.60;;;;;;;11.67;100.00;-9171.75;5132689;28;20182;-63
2023/04/17 09:20:26;;;;;;;12.60;8.30;;;;;;;11.72;100.00;-8853.03;5132819;28;20214;-62
2023/04/17 09:23:01;;;;;;;9.80;7.50;;;;;;;11.73;100.00;-8853.09;5132414;28;20190;-62
2023/04/17 09:25:31;;;;;;;7.67;7.07;;;;;;;11.82;100.00;-8853.97;5132848;28;20261;-62
2023/04/17 09:28:12;;;;;;;8.20;7.53;;;;;;;11.98;100.00;-8216.53;5132370;28;20282;-62
2023/04/17 09:30:41;;;;;;;7.93;7.27;;;;;;;11.88;100.00;-7576.94;5132635;28;20612;-62
2023/04/17 09:33:09;;;;;;;8.43;7.00;;;;;;;11.97;100.00;-8216.50;5132574;28;20228;-62
2023/04/17 09:35:38;;;;;;;7.73;7.20;;;;;;;12.03;100.00;-8536.44;5134319;27;20252;-61
2023/04/17 09:38:06;;;;;;;8.30;7.70;;;;;;;12.11;100.00;-9495.34;5136742;27;20548;-62
2023/04/17 09:40:40;;;;;;;10.57;8.10;;;;;;;12.32;100.00;-10775.22;5136338;27;20187;-61
2023/04/17 09:43:09;;;;;;;9.77;7.77;;;;;;;12.45;100.00;-11096.16;5136320;27;20183;-62
2023/04/17 09:45:38;;;;;;;8.33;7.20;;;;;;;12.49;100.00;-10777.22;5136418;27;20205;-62
2023/04/17 09:48:07;;;;;;;5.43;5.13;;;;;;;12.36;100.00;-7899.94;5136359;27;20277;-63
2023/04/17 09:50:35;;;;;;;5.90;5.37;;;;;;;12.31;100.00;-8538.84;5136725;27;20183;-62
2023/04/17 09:53:03;;;;;;;6.07;5.57;;;;;;;12.30;100.00;-10136.19;5136699;27;20265;-64
2023/04/17 09:55:35;;;;;;;6.00;5.50;;;;;;;12.25;100.00;-10135.62;5136243;27;20214;-62
2023/04/17 09:58:04;;;;;;;6.10;5.53;;;;;;;12.00;100.00;-9494.28;5136358;27;20237;-62
2023/04/17 10:00:31;;;;;;;6.37;5.93;;;;;;;12.02;100.00;-11409.91;5136417;27;20609;-62
2023/04/17 10:02:59;;;;;;;6.33;5.93;;;;;;;11.79;100.00;-10449.69;5136375;27;20581;-63
2023/04/17 10:05:27;;;;;;;6.87;6.27;;;;;;;11.76;100.00;-11406.59;5136405;27;20617;-62
2023/04/17 10:07:55;;;;;;;7.87;7.00;;;;;;;11.78;100.00;-12044.84;5135930;27;20387;-62
2023/04/17 10:10:24;;;;;;;7.00;6.60;;;;;;;11.75;100.00;-11406.38;5136011;27;20546;-63
2023/04/17 10:12:56;;;;;;;7.73;7.13;;;;;;;11.58;100.00;-11085.25;5135843;27;20201;-62
2023/04/17 10:15:24;;;;;;;8.37;7.40;;;;;;;11.71;100.00;-10448.75;5136011;27;20534;-62
2023/04/17 10:17:51;;;;;;;8.60;7.77;;;;;;;11.70;100.00;-9491.25;5135797;27;20221;-63
2023/04/17 10:20:38;;;;;;;8.57;7.87;;;;;;;11.68;100.00;-9171.91;5136107;27;20572;-62
2023/04/17 10:23:33;;;;;;;6.37;5.97;;;;;;;11.59;100.00;-6936.22;5136331;27;20246;-63
2023/04/17 10:26:37;;;;;;;13.50;7.63;;;;;;;11.67;100.00;-9490.94;5135979;27;20209;-63
2023/04/17 10:29:06;;;;;;;9.60;8.13;;;;;;;11.65;100.00;-10128.97;5135833;27;20196;-63
2023/04/17 10:32:18;;;;;;;7.90;7.47;;;;;;;11.73;100.00;-9810.72;5135558;27;20179;-63
2023/04/17 10:34:45;;;;;;;8.63;8.03;;;;;;;11.79;100.00;-9811.38;5125228;27;20247;-63
2023/04/17 10:37:14;;;;;;;8.67;8.10;;;;;;;11.85;100.00;-9812.06;5135476;27;20203;-63
2023/04/17 10:39:51;;;;;;;8.13;7.53;;;;;;;11.92;100.00;-9174.19;5135558;27;20243;-63
2023/04/17 10:42:20;;;;;;;8.07;7.43;;;;;;;12.00;100.00;-10452.13;5135398;27;20200;-63
2023/04/17 10:44:49;;;;;;;11.97;8.47;;;;;;;12.07;100.00;-10452.91;5135503;27;20183;-63
2023/04/17 10:47:20;;;;;;;9.33;8.53;;;;;;;12.17;100.00;-10773.44;5116398;27;20198;-64
2023/04/17 10:49:51;;;;;;;9.97;8.60;;;;;;;12.23;100.00;-11732.00;5135520;27;20617;-65
2023/04/17 10:52:43;;;;;;;9.67;8.83;;;;;;;12.34;100.00;-13010.31;5135503;27;20586;-63
2023/04/17 10:55:14;;;;;;;8.53;8.03;;;;;;;12.45;100.00;-13012.00;5110953;27;20207;-62
2023/04/17 10:58:01;;;;;;;9.57;8.43;;;;;;;12.53;100.00;-14928.31;5135186;27;20263;-62
2023/04/17 11:00:32;;;;;;;8.53;7.70;;;;;;;12.57;100.00;-16205.06;5134927;27;20274;-62
2023/04/17 11:03:00;;;;;;;8.43;7.70;;;;;;;12.71;100.00;-18123.50;5134876;27;20225;-62
2023/04/17 11:05:27;;;;;;;8.20;7.50;;;;;;;12.89;100.00;-18127.72;5134940;27;20270;-62
2023/04/17 11:07:55;;;;;;;8.57;8.03;;;;;;;13.03;100.00;-18131.22;5134969;27;20271;-63
2023/04/17 11:10:22;;;;;;;8.37;7.53;;;;;;;13.15;100.00;-18134.09;5135003;27;20182;-62
2023/04/17 11:12:52;;;;;;;7.47;6.97;;;;;;;13.22;100.00;-15260.69;5134653;27;20195;-61
2023/04/17 11:15:28;;;;;;;7.90;7.03;;;;;;;13.37;100.00;-14624.41;5134898;27;20281;-61
2023/04/17 11:17:58;;;;;;;7.70;6.97;;;;;;;13.36;100.00;-7587.16;5134487;27;20202;-61